createdAt,value
2022-10-30T00:00:25.247Z,13.43
2022-10-30T00:01:26.895Z,13.43
2022-10-30T00:02:29.823Z,13.42
2022-10-30T00:03:31.840Z,13.42
2022-10-30T00:04:33.933Z,13.45
2022-10-30T00:05:36.094Z,13.47
2022-10-30T00:06:38.071Z,13.48
2022-10-30T00:07:39.825Z,13.50
2022-10-30T00:08:42.099Z,13.48
2022-10-30T00:09:43.803Z,13.46
2022-10-30T00:10:46.353Z,13.44
2022-10-30T00:11:48.268Z,13.44
2022-10-30T00:12:50.440Z,13.40
2022-10-30T00:13:52.057Z,13.40
2022-10-30T00:14:53.711Z,13.40
2022-10-30T00:15:55.334Z,13.41
2022-10-30T00:16:57.677Z,13.42
2022-10-30T00:18:00.022Z,13.38
2022-10-30T00:19:03.215Z,13.38
2022-10-30T00:20:07.160Z,13.37
2022-10-30T00:21:11.450Z,13.37
2022-10-30T00:22:13.405Z,13.37
2022-10-30T00:23:15.647Z,13.36
2022-10-30T00:24:17.450Z,13.38
2022-10-30T00:25:19.376Z,13.37
2022-10-30T00:26:22.497Z,13.36
2022-10-30T00:27:24.491Z,13.36
2022-10-30T00:28:26.313Z,13.34
2022-10-30T00:29:28.281Z,13.36
2022-10-30T00:30:30.612Z,13.30
2022-10-30T00:31:32.629Z,13.30
2022-10-30T00:32:34.403Z,13.30
2022-10-30T00:33:36.120Z,13.30
2022-10-30T00:34:39.352Z,13.24
2022-10-30T00:36:49.758Z,13.22
2022-10-30T00:37:51.718Z,13.24
2022-10-30T00:38:54.544Z,13.25
2022-10-30T00:39:56.258Z,13.25
2022-10-30T00:40:58.224Z,13.28
2022-10-30T00:42:00.407Z,13.26
2022-10-30T00:43:02.668Z,13.21
2022-10-30T00:44:37.298Z,13.18
2022-10-30T00:45:39.342Z,13.19
2022-10-30T00:46:42.264Z,13.24
2022-10-30T00:47:47.908Z,13.23
2022-10-30T00:48:59.456Z,13.24
2022-10-30T00:50:07.968Z,13.23
2022-10-30T00:51:12.139Z,13.21
2022-10-30T00:52:14.589Z,13.20
2022-10-30T00:53:20.090Z,13.18
2022-10-30T00:54:23.462Z,13.16
2022-10-30T00:56:47.791Z,13.26
2022-10-30T00:57:50.299Z,13.15
2022-10-30T00:58:55.723Z,13.12
2022-10-30T00:59:58.184Z,13.13
2022-10-30T01:01:04.161Z,13.10
2022-10-30T01:02:07.584Z,13.13
2022-10-30T01:03:10.477Z,13.12
2022-10-30T01:04:13.915Z,13.12
2022-10-30T01:05:19.360Z,13.13
2022-10-30T01:06:23.613Z,13.08
2022-10-30T01:07:26.581Z,13.07
2022-10-30T01:08:28.896Z,13.06
2022-10-30T01:09:31.537Z,13.04
2022-10-30T01:10:33.515Z,13.08
2022-10-30T01:11:36.570Z,13.03
2022-10-30T01:12:40.721Z,13.01
2022-10-30T01:13:46.260Z,13.02
2022-10-30T01:14:51.852Z,12.99
2022-10-30T01:16:13.045Z,13.00
2022-10-30T01:17:42.702Z,13.00
2022-10-30T01:18:54.928Z,13.02
2022-10-30T01:20:03.541Z,13.01
2022-10-30T01:21:34.838Z,13.01
2022-10-30T01:23:07.061Z,12.99
2022-10-30T01:24:27.954Z,13.00
2022-10-30T01:25:45.449Z,12.97
2022-10-30T01:28:23.282Z,13.08
2022-10-30T01:29:48.334Z,13.01
2022-10-30T01:31:17.213Z,12.97
2022-10-30T01:32:28.821Z,12.96
2022-10-30T01:33:52.521Z,12.97
2022-10-30T01:35:17.751Z,12.97
2022-10-30T01:36:41.593Z,12.98
2022-10-30T01:38:02.982Z,12.96
2022-10-30T01:39:17.276Z,12.96
2022-10-30T01:40:20.131Z,12.94
2022-10-30T01:41:23.734Z,12.94
2022-10-30T01:42:58.395Z,12.94
2022-10-30T01:44:09.548Z,12.92
2022-10-30T01:45:15.569Z,12.99
2022-10-30T01:46:24.178Z,12.94
2022-10-30T01:47:29.889Z,12.90
2022-10-30T01:49:00.145Z,12.85
2022-10-30T01:50:24.116Z,12.85
2022-10-30T01:51:48.556Z,12.84
2022-10-30T01:53:03.004Z,12.84
2022-10-30T01:54:25.221Z,12.82
2022-10-30T01:55:49.318Z,12.82
2022-10-30T01:57:01.020Z,12.81
2022-10-30T01:58:18.949Z,12.79
2022-10-30T01:59:24.514Z,12.78
2022-10-30T02:00:28.201Z,12.76
2022-10-30T02:01:31.840Z,12.78
2022-10-30T02:02:34.631Z,12.78
2022-10-30T02:03:37.242Z,12.81
2022-10-30T02:04:40.121Z,12.74
2022-10-30T02:05:45.436Z,12.76
2022-10-30T02:06:47.786Z,12.71
2022-10-30T02:07:50.742Z,12.72
2022-10-30T02:08:56.737Z,12.71
2022-10-30T02:09:58.850Z,12.74
2022-10-30T02:11:03.680Z,12.74
2022-10-30T02:12:14.760Z,12.72
2022-10-30T02:13:17.599Z,12.73
2022-10-30T02:14:32.798Z,12.70
2022-10-30T02:15:36.527Z,12.71
2022-10-30T02:16:42.657Z,12.73
2022-10-30T02:17:44.992Z,12.73
2022-10-30T02:18:49.000Z,12.71
2022-10-30T02:19:51.485Z,12.72
2022-10-30T02:20:53.583Z,12.67
2022-10-30T02:21:55.839Z,12.65
2022-10-30T02:23:00.157Z,12.82
2022-10-30T02:24:04.942Z,13.39
2022-10-30T02:25:07.782Z,13.46
2022-10-30T02:26:10.530Z,13.47
2022-10-30T02:27:12.990Z,13.50
2022-10-30T02:28:15.461Z,13.28
2022-10-30T02:29:17.562Z,13.43
2022-10-30T02:30:19.383Z,13.51
2022-10-30T02:31:21.226Z,13.58
2022-10-30T02:32:22.956Z,13.41
2022-10-30T02:33:25.250Z,13.74
2022-10-30T02:34:27.655Z,13.61
2022-10-30T02:35:32.127Z,13.34
2022-10-30T02:36:34.398Z,13.51
2022-10-30T02:37:36.486Z,13.73
2022-10-30T02:38:38.678Z,13.58
2022-10-30T02:39:40.675Z,13.12
2022-10-30T02:40:42.841Z,13.37
2022-10-30T02:41:44.681Z,13.33
2022-10-30T02:42:51.936Z,13.10
2022-10-30T02:43:53.863Z,12.99
2022-10-30T02:44:56.000Z,13.20
2022-10-30T02:45:57.998Z,13.08
2022-10-30T02:47:00.130Z,12.93
2022-10-30T02:48:03.393Z,12.85
2022-10-30T02:49:06.259Z,12.88
2022-10-30T02:50:09.860Z,12.85
2022-10-30T02:51:11.707Z,13.22
2022-10-30T02:52:14.014Z,12.85
2022-10-30T02:53:16.715Z,12.76
2022-10-30T02:54:20.311Z,12.66
2022-10-30T02:55:22.815Z,12.61
2022-10-30T02:56:27.712Z,12.78
2022-10-30T02:57:29.773Z,12.78
2022-10-30T02:58:31.602Z,12.66
2022-10-30T02:59:33.301Z,12.57
2022-10-30T03:00:35.545Z,12.51
2022-10-30T03:01:38.659Z,12.48
2022-10-30T03:02:41.967Z,12.51
2022-10-30T03:03:45.873Z,12.43
2022-10-30T03:04:47.835Z,12.43
2022-10-30T03:05:49.501Z,12.42
2022-10-30T03:06:51.423Z,12.40
2022-10-30T03:07:54.896Z,12.35
2022-10-30T03:08:58.112Z,12.31
2022-10-30T03:10:00.273Z,12.30
2022-10-30T03:11:05.094Z,12.35
2022-10-30T03:12:07.351Z,12.28
2022-10-30T03:13:09.236Z,12.23
2022-10-30T03:14:11.488Z,12.20
2022-10-30T03:15:13.590Z,12.21
2022-10-30T03:16:19.515Z,12.21
2022-10-30T03:17:21.360Z,12.18
2022-10-30T03:18:23.645Z,12.16
2022-10-30T03:19:25.389Z,12.18
2022-10-30T03:20:27.335Z,12.21
2022-10-30T03:21:29.283Z,12.22
2022-10-30T03:22:31.072Z,12.19
2022-10-30T03:23:33.698Z,12.19
2022-10-30T03:24:36.124Z,12.13
2022-10-30T03:25:38.255Z,12.15
2022-10-30T03:26:40.157Z,12.21
2022-10-30T03:27:42.402Z,12.10
2022-10-30T03:28:44.780Z,12.10
2022-10-30T03:29:47.200Z,12.10
2022-10-30T03:30:50.002Z,12.07
2022-10-30T03:31:51.991Z,12.05
2022-10-30T03:32:53.984Z,12.03
2022-10-30T03:33:55.916Z,11.98
2022-10-30T03:34:57.649Z,12.00
2022-10-30T03:35:59.985Z,11.98
2022-10-30T03:37:01.795Z,11.97
2022-10-30T03:38:03.681Z,11.98
2022-10-30T03:39:07.230Z,11.97
2022-10-30T03:40:10.990Z,11.97
2022-10-30T03:41:14.241Z,11.94
2022-10-30T03:42:16.117Z,11.95
2022-10-30T03:43:18.263Z,11.94
2022-10-30T03:44:20.639Z,11.94
2022-10-30T03:45:23.463Z,11.96
2022-10-30T03:46:27.645Z,12.00
2022-10-30T03:47:31.294Z,12.03
2022-10-30T03:48:33.133Z,12.02
2022-10-30T03:49:35.324Z,12.02
2022-10-30T03:50:39.042Z,12.03
2022-10-30T03:51:40.800Z,12.06
2022-10-30T03:52:42.554Z,12.09
2022-10-30T03:53:44.944Z,12.09
2022-10-30T03:54:47.915Z,12.10
2022-10-30T03:55:50.614Z,12.14
2022-10-30T03:56:53.398Z,12.09
2022-10-30T03:57:55.887Z,12.09
2022-10-30T03:59:00.091Z,12.05
2022-10-30T04:00:05.398Z,12.06
2022-10-30T04:01:16.663Z,12.02
2022-10-30T04:03:22.388Z,12.08
2022-10-30T04:04:24.193Z,12.00
2022-10-30T04:05:27.485Z,12.07
2022-10-30T04:06:31.010Z,11.97
2022-10-30T04:07:32.864Z,11.94
2022-10-30T04:08:35.020Z,11.96
2022-10-30T04:09:37.317Z,11.97
2022-10-30T04:10:44.711Z,11.96
2022-10-30T04:11:47.480Z,11.98
2022-10-30T04:12:50.048Z,11.94
2022-10-30T04:13:52.808Z,11.93
2022-10-30T04:14:54.453Z,11.92
2022-10-30T04:15:58.135Z,11.91
2022-10-30T04:17:00.503Z,11.93
2022-10-30T04:18:03.458Z,11.91
2022-10-30T04:19:05.893Z,11.89
2022-10-30T04:20:09.500Z,11.89
2022-10-30T04:21:11.469Z,11.88
2022-10-30T04:22:13.448Z,11.86
2022-10-30T04:23:17.297Z,11.85
2022-10-30T04:24:19.144Z,11.86
2022-10-30T04:25:23.399Z,11.85
2022-10-30T04:26:26.088Z,11.83
2022-10-30T04:27:27.955Z,11.83
2022-10-30T04:28:29.810Z,11.86
2022-10-30T04:29:31.960Z,11.82
2022-10-30T04:30:34.510Z,11.80
2022-10-30T04:31:37.101Z,11.81
2022-10-30T04:32:49.902Z,11.88
2022-10-30T04:33:52.857Z,11.84
2022-10-30T04:34:55.942Z,11.86
2022-10-30T04:35:58.021Z,11.86
2022-10-30T04:37:00.452Z,11.81
2022-10-30T04:38:06.965Z,11.87
2022-10-30T04:39:10.814Z,11.89
2022-10-30T04:40:13.483Z,11.87
2022-10-30T04:41:17.305Z,11.86
2022-10-30T04:42:21.208Z,11.83
2022-10-30T04:43:23.105Z,11.87
2022-10-30T04:44:26.785Z,11.89
2022-10-30T04:45:30.809Z,11.91
2022-10-30T04:46:32.949Z,11.87
2022-10-30T04:47:36.903Z,11.82
2022-10-30T04:48:40.166Z,11.77
2022-10-30T04:49:42.696Z,11.81
2022-10-30T04:50:45.554Z,11.86
2022-10-30T04:51:49.940Z,11.92
2022-10-30T04:53:07.079Z,11.93
2022-10-30T04:54:08.821Z,11.89
2022-10-30T04:55:11.550Z,11.89
2022-10-30T04:56:14.524Z,11.83
2022-10-30T04:57:16.318Z,11.81
2022-10-30T04:58:18.638Z,11.86
2022-10-30T04:59:22.514Z,11.82
2022-10-30T05:00:26.668Z,11.86
2022-10-30T05:01:30.596Z,11.84
2022-10-30T05:02:35.504Z,11.84
2022-10-30T05:03:38.036Z,11.90
2022-10-30T05:04:41.711Z,11.84
2022-10-30T05:05:43.827Z,11.89
2022-10-30T05:06:45.711Z,11.89
2022-10-30T05:07:48.854Z,11.90
2022-10-30T05:08:52.220Z,11.87
2022-10-30T05:10:02.707Z,11.90
2022-10-30T05:11:05.587Z,11.88
2022-10-30T05:12:08.212Z,11.88
2022-10-30T05:13:11.862Z,11.90
2022-10-30T05:14:14.455Z,11.91
2022-10-30T05:15:17.186Z,11.81
2022-10-30T05:16:20.339Z,11.83
2022-10-30T05:17:22.961Z,11.87
2022-10-30T05:18:25.097Z,11.84
2022-10-30T05:19:27.710Z,11.85
2022-10-30T05:20:31.067Z,11.90
2022-10-30T05:21:33.392Z,11.91
2022-10-30T05:22:35.057Z,11.90
2022-10-30T05:23:37.086Z,11.93
2022-10-30T05:24:41.028Z,11.86
2022-10-30T05:25:43.532Z,11.82
2022-10-30T05:26:46.670Z,11.87
2022-10-30T05:27:48.845Z,11.83
2022-10-30T05:28:52.496Z,11.85
2022-10-30T05:29:54.431Z,11.86
2022-10-30T05:30:57.022Z,11.82
2022-10-30T05:32:01.183Z,11.83
2022-10-30T05:33:13.808Z,11.87
2022-10-30T05:34:16.559Z,11.87
2022-10-30T05:35:19.523Z,11.83
2022-10-30T05:36:22.545Z,11.84
2022-10-30T05:37:25.076Z,11.87
2022-10-30T05:38:27.797Z,11.85
2022-10-30T05:39:30.458Z,11.81
2022-10-30T05:40:34.160Z,11.83
2022-10-30T05:41:36.808Z,11.86
2022-10-30T05:42:47.483Z,11.92
2022-10-30T05:43:49.799Z,11.92
2022-10-30T05:45:00.999Z,11.91
2022-10-30T05:45:56.659Z,11.94
2022-10-30T05:46:58.650Z,11.96
2022-10-30T05:48:06.396Z,11.90
2022-10-30T05:49:10.415Z,11.98
2022-10-30T05:50:13.196Z,11.97
2022-10-30T05:51:17.219Z,11.95
2022-10-30T05:52:21.483Z,11.97
2022-10-30T05:53:25.939Z,11.95
2022-10-30T05:54:28.615Z,11.93
2022-10-30T05:55:32.711Z,11.98
2022-10-30T05:56:48.526Z,12.00
2022-10-30T05:57:57.101Z,12.00
2022-10-30T05:58:59.558Z,11.98
2022-10-30T06:00:01.594Z,11.94
2022-10-30T06:01:07.407Z,11.94
2022-10-30T06:02:15.699Z,11.97
2022-10-30T06:03:17.996Z,11.95
2022-10-30T06:04:20.836Z,11.95
2022-10-30T06:05:23.895Z,11.93
2022-10-30T06:06:26.212Z,11.93
2022-10-30T06:07:27.972Z,11.91
2022-10-30T06:08:29.820Z,11.90
2022-10-30T06:09:33.575Z,11.94
2022-10-30T06:10:53.983Z,11.90
2022-10-30T06:11:57.645Z,11.94
2022-10-30T06:13:03.110Z,11.90
2022-10-30T06:14:12.787Z,11.97
2022-10-30T06:15:16.572Z,12.05
2022-10-30T06:16:19.752Z,12.07
2022-10-30T06:17:30.382Z,12.05
2022-10-30T06:18:36.999Z,11.93
2022-10-30T06:19:41.222Z,11.92
2022-10-30T06:20:48.033Z,12.01
2022-10-30T06:22:00.884Z,12.01
2022-10-30T06:23:07.634Z,12.02
2022-10-30T06:24:14.926Z,12.01
2022-10-30T06:25:19.652Z,12.06
2022-10-30T06:26:35.607Z,12.02
2022-10-30T06:27:40.438Z,11.98
2022-10-30T06:28:42.212Z,12.02
2022-10-30T06:29:44.289Z,11.96
2022-10-30T06:30:47.126Z,11.98
2022-10-30T06:31:49.564Z,12.02
2022-10-30T06:33:01.887Z,11.93
2022-10-30T06:34:04.241Z,11.92
2022-10-30T06:35:08.914Z,11.95
2022-10-30T06:36:11.787Z,11.95
2022-10-30T06:37:13.867Z,11.91
2022-10-30T06:38:16.008Z,11.94
2022-10-30T06:39:17.741Z,11.91
2022-10-30T06:40:23.542Z,11.85
2022-10-30T06:41:45.727Z,11.88
2022-10-30T06:42:56.593Z,11.88
2022-10-30T06:44:18.667Z,11.89
2022-10-30T06:45:22.601Z,11.71
2022-10-30T06:46:29.038Z,11.71
2022-10-30T06:47:34.036Z,11.77
2022-10-30T06:48:36.176Z,11.84
2022-10-30T06:49:37.800Z,11.87
2022-10-30T06:50:40.295Z,11.82
2022-10-30T06:51:43.144Z,11.81
2022-10-30T06:52:45.336Z,11.82
2022-10-30T06:53:47.706Z,11.73
2022-10-30T06:55:09.305Z,11.73
2022-10-30T06:56:17.413Z,11.79
2022-10-30T06:57:24.068Z,11.83
2022-10-30T06:58:36.681Z,11.86
2022-10-30T06:59:42.294Z,11.81
2022-10-30T07:02:00.415Z,11.87
2022-10-30T07:03:03.706Z,11.78
2022-10-30T07:04:05.920Z,11.80
2022-10-30T07:05:07.945Z,11.79
2022-10-30T07:06:11.430Z,11.78
2022-10-30T07:07:16.155Z,11.78
2022-10-30T07:08:19.126Z,11.80
2022-10-30T07:09:21.401Z,11.78
2022-10-30T07:10:24.769Z,11.71
2022-10-30T07:11:33.961Z,11.65
2022-10-30T07:12:55.264Z,11.64
2022-10-30T07:13:59.305Z,11.59
2022-10-30T07:15:14.726Z,11.67
2022-10-30T07:16:19.355Z,11.65
2022-10-30T07:17:23.664Z,11.60
2022-10-30T07:18:27.718Z,11.59
2022-10-30T07:19:32.183Z,11.67
2022-10-30T07:20:35.383Z,11.78
2022-10-30T07:21:37.313Z,11.78
2022-10-30T07:22:41.012Z,11.78
2022-10-30T07:23:44.803Z,11.72
2022-10-30T07:24:55.785Z,11.65
2022-10-30T07:26:18.331Z,11.69
2022-10-30T07:27:21.888Z,11.63
2022-10-30T07:28:28.955Z,11.66
2022-10-30T07:29:41.459Z,11.61
2022-10-30T07:30:48.226Z,11.70
2022-10-30T07:32:02.943Z,11.76
2022-10-30T07:33:09.476Z,11.73
2022-10-30T07:34:31.439Z,11.72
2022-10-30T07:35:51.520Z,11.72
2022-10-30T07:36:56.483Z,11.70
2022-10-30T07:38:13.345Z,11.70
2022-10-30T07:39:17.466Z,11.72
2022-10-30T07:40:22.192Z,11.74
2022-10-30T07:41:28.475Z,11.81
2022-10-30T07:42:33.142Z,11.82
2022-10-30T07:43:46.184Z,11.82
2022-10-30T07:45:08.030Z,11.77
2022-10-30T07:46:28.435Z,11.77
2022-10-30T07:47:44.005Z,11.81
2022-10-30T07:48:57.261Z,11.90
2022-10-30T07:50:01.558Z,11.87
2022-10-30T07:51:05.908Z,11.91
2022-10-30T07:52:09.738Z,11.94
2022-10-30T07:53:12.072Z,11.93
2022-10-30T07:54:15.646Z,11.91
2022-10-30T07:55:18.197Z,11.85
2022-10-30T07:56:25.356Z,11.87
2022-10-30T07:57:38.123Z,11.98
2022-10-30T07:58:59.708Z,11.97
2022-10-30T08:00:13.032Z,12.10
2022-10-30T08:01:15.444Z,12.09
2022-10-30T08:02:18.115Z,12.12
2022-10-30T08:04:45.007Z,12.10
2022-10-30T08:05:49.280Z,11.97
2022-10-30T08:06:55.854Z,12.01
2022-10-30T08:07:58.894Z,11.97
2022-10-30T08:09:01.262Z,12.02
2022-10-30T08:10:06.644Z,12.16
2022-10-30T08:11:08.751Z,12.10
2022-10-30T08:12:11.033Z,12.18
2022-10-30T08:13:13.384Z,12.26
2022-10-30T08:14:18.933Z,12.26
2022-10-30T08:15:21.077Z,12.35
2022-10-30T08:16:24.033Z,12.33
2022-10-30T08:17:25.893Z,12.49
2022-10-30T08:18:28.910Z,12.60
2022-10-30T08:19:30.759Z,12.60
2022-10-30T08:20:33.621Z,12.74
2022-10-30T08:21:35.435Z,12.87
2022-10-30T08:22:50.886Z,13.09
2022-10-30T08:23:55.269Z,12.79
2022-10-30T08:24:58.749Z,12.71
2022-10-30T08:26:02.869Z,13.00
2022-10-30T08:27:05.626Z,13.02
2022-10-30T08:28:08.062Z,12.96
2022-10-30T08:29:12.051Z,12.74
2022-10-30T08:30:16.048Z,12.56
2022-10-30T08:31:18.040Z,12.71
2022-10-30T08:32:39.854Z,13.07
2022-10-30T08:34:58.719Z,12.89
2022-10-30T08:36:01.120Z,12.92
2022-10-30T08:37:03.306Z,12.99
2022-10-30T08:38:06.209Z,12.86
2022-10-30T08:39:08.260Z,12.81
2022-10-30T08:40:16.355Z,12.82
2022-10-30T08:41:20.431Z,12.84
2022-10-30T08:42:24.165Z,12.62
2022-10-30T08:43:25.997Z,12.61
2022-10-30T08:44:28.334Z,12.52
2022-10-30T08:45:38.602Z,12.56
2022-10-30T08:46:54.053Z,12.61
2022-10-30T08:48:01.159Z,12.43
2022-10-30T08:49:05.154Z,12.36
2022-10-30T08:50:10.521Z,12.18
2022-10-30T08:51:12.982Z,12.20
2022-10-30T08:52:19.424Z,12.23
2022-10-30T08:53:23.103Z,12.26
2022-10-30T08:54:26.358Z,12.36
2022-10-30T08:55:30.490Z,12.50
2022-10-30T08:56:35.204Z,12.59
2022-10-30T08:57:44.840Z,12.49
2022-10-30T08:58:47.934Z,12.53
2022-10-30T08:59:50.795Z,12.52
2022-10-30T09:01:01.174Z,12.54
2022-10-30T09:02:11.905Z,12.46
2022-10-30T09:03:32.444Z,12.40
2022-10-30T09:04:48.861Z,12.37
2022-10-30T09:06:10.028Z,12.35
2022-10-30T09:07:16.749Z,12.46
2022-10-30T09:08:41.097Z,12.45
2022-10-30T09:09:45.335Z,12.51
2022-10-30T09:10:48.349Z,12.52
2022-10-30T09:11:50.696Z,12.66
2022-10-30T09:13:00.496Z,12.56
2022-10-30T09:14:03.416Z,12.57
2022-10-30T09:15:06.677Z,12.60
2022-10-30T09:16:11.089Z,12.64
2022-10-30T09:17:13.488Z,12.49
2022-10-30T09:18:17.577Z,12.49
2022-10-30T09:19:20.533Z,12.57
2022-10-30T09:20:23.223Z,12.29
2022-10-30T09:21:25.119Z,12.29
2022-10-30T09:22:27.914Z,12.34
2022-10-30T09:23:30.248Z,12.35
2022-10-30T09:24:35.227Z,12.41
2022-10-30T09:25:38.909Z,12.40
2022-10-30T09:26:48.695Z,12.49
2022-10-30T09:27:59.370Z,12.60
2022-10-30T09:29:02.966Z,12.75
2022-10-30T09:30:26.535Z,12.69
2022-10-30T09:31:29.377Z,12.38
2022-10-30T09:32:31.503Z,12.35
2022-10-30T09:33:37.938Z,12.39
2022-10-30T09:34:41.764Z,12.42
2022-10-30T09:35:51.246Z,12.56
2022-10-30T09:36:53.421Z,12.54
2022-10-30T09:37:56.675Z,12.44
2022-10-30T09:38:59.075Z,12.35
2022-10-30T09:40:01.943Z,12.37
2022-10-30T09:41:25.676Z,12.38
2022-10-30T09:42:48.448Z,12.35
2022-10-30T09:44:16.854Z,12.57
2022-10-30T09:45:41.012Z,12.43
2022-10-30T09:46:47.730Z,12.56
2022-10-30T09:48:20.508Z,12.35
2022-10-30T09:49:39.982Z,12.37
2022-10-30T09:50:57.821Z,12.44
2022-10-30T09:52:24.873Z,12.46
2022-10-30T09:53:34.034Z,12.58
2022-10-30T09:55:14.735Z,12.57
2022-10-30T09:56:37.725Z,12.48
2022-10-30T09:57:50.019Z,12.77
2022-10-30T09:58:57.239Z,12.41
2022-10-30T10:00:12.196Z,12.50
2022-10-30T10:01:27.221Z,12.52
2022-10-30T10:04:23.779Z,12.69
2022-10-30T10:05:54.908Z,12.47
2022-10-30T10:07:20.457Z,12.60
2022-10-30T10:08:36.397Z,12.63
2022-10-30T10:10:00.362Z,12.54
2022-10-30T10:11:20.207Z,12.42
2022-10-30T10:12:34.559Z,12.32
2022-10-30T10:13:58.762Z,12.34
2022-10-30T10:15:04.255Z,12.44
2022-10-30T10:16:13.590Z,12.59
2022-10-30T10:17:19.089Z,12.69
2022-10-30T10:18:25.763Z,12.59
2022-10-30T10:19:32.685Z,12.65
2022-10-30T10:20:38.395Z,12.48
2022-10-30T10:21:49.054Z,12.68
2022-10-30T10:22:51.823Z,12.66
2022-10-30T10:23:58.523Z,12.36
2022-10-30T10:25:04.027Z,12.33
2022-10-30T10:26:28.421Z,12.28
2022-10-30T10:27:34.109Z,12.16
2022-10-30T10:28:40.088Z,12.22
2022-10-30T10:30:14.432Z,12.27
2022-10-30T10:31:44.631Z,12.26
2022-10-30T10:33:18.455Z,12.27
2022-10-30T10:34:30.048Z,12.40
2022-10-30T10:35:45.725Z,12.28
2022-10-30T10:36:54.509Z,12.35
2022-10-30T10:38:23.033Z,12.27
2022-10-30T10:39:51.568Z,12.31
2022-10-30T10:41:10.015Z,12.32
2022-10-30T10:42:36.814Z,12.44
2022-10-30T10:44:17.868Z,12.35
2022-10-30T10:45:26.998Z,12.28
2022-10-30T10:46:52.569Z,12.23
2022-10-30T10:49:47.016Z,12.39
2022-10-30T10:51:08.731Z,12.46
2022-10-30T10:52:17.229Z,12.72
2022-10-30T10:53:40.453Z,12.70
2022-10-30T10:54:47.008Z,12.63
2022-10-30T10:55:52.136Z,12.70
2022-10-30T10:56:56.072Z,12.55
2022-10-30T10:58:02.348Z,12.55
2022-10-30T10:59:07.847Z,12.56
2022-10-30T11:00:20.471Z,12.58
2022-10-30T11:01:26.146Z,12.60
2022-10-30T11:02:32.000Z,12.62
2022-10-30T11:03:57.061Z,12.49
2022-10-30T11:05:14.950Z,12.44
2022-10-30T11:06:20.893Z,12.59
2022-10-30T11:07:28.397Z,12.71
2022-10-30T11:08:33.105Z,12.68
2022-10-30T11:09:35.089Z,12.56
2022-10-30T11:10:37.187Z,12.56
2022-10-30T11:11:38.915Z,12.53
2022-10-30T11:12:40.862Z,12.68
2022-10-30T11:13:43.892Z,12.67
2022-10-30T11:14:46.240Z,12.67
2022-10-30T11:16:11.359Z,12.71
2022-10-30T11:17:22.976Z,12.75
2022-10-30T11:18:24.906Z,12.68
2022-10-30T11:19:29.693Z,12.78
2022-10-30T11:20:38.141Z,12.89
2022-10-30T11:21:43.630Z,12.91
2022-10-30T11:22:49.387Z,12.93
2022-10-30T11:23:52.677Z,12.96
2022-10-30T11:24:55.621Z,12.92
2022-10-30T11:25:57.757Z,12.96
2022-10-30T11:27:25.779Z,12.88
2022-10-30T11:28:40.050Z,12.97
2022-10-30T11:29:49.557Z,13.10
2022-10-30T11:30:53.979Z,13.21
2022-10-30T11:32:05.745Z,12.99
2022-10-30T11:33:27.674Z,12.85
2022-10-30T11:34:37.091Z,12.77
2022-10-30T11:35:43.339Z,12.71
2022-10-30T11:36:47.968Z,12.81
2022-10-30T11:37:52.065Z,12.91
2022-10-30T11:38:57.561Z,12.87
2022-10-30T11:40:07.344Z,12.90
2022-10-30T11:41:10.378Z,13.23
2022-10-30T11:42:15.985Z,13.02
2022-10-30T11:43:24.075Z,13.13
2022-10-30T11:44:32.445Z,13.01
2022-10-30T11:45:37.925Z,12.86
2022-10-30T11:46:41.672Z,12.85
2022-10-30T11:47:45.142Z,12.93
2022-10-30T11:48:48.410Z,12.82
2022-10-30T11:49:57.606Z,12.88
2022-10-30T11:51:01.794Z,12.78
2022-10-30T11:52:06.183Z,12.79
2022-10-30T11:53:23.363Z,12.76
2022-10-30T11:54:26.752Z,12.76
2022-10-30T11:55:40.410Z,13.02
2022-10-30T11:56:46.881Z,12.93
2022-10-30T11:57:51.631Z,13.09
2022-10-30T11:58:56.894Z,12.85
2022-10-30T12:00:04.660Z,12.91
2022-10-30T12:01:11.800Z,12.78
2022-10-30T12:02:25.862Z,12.93
2022-10-30T12:03:36.700Z,12.93
2022-10-30T12:04:38.470Z,12.87
2022-10-30T12:05:45.095Z,12.85
2022-10-30T12:06:47.007Z,12.99
2022-10-30T12:07:48.786Z,12.89
2022-10-30T12:09:04.044Z,12.92
2022-10-30T12:10:10.836Z,12.89
2022-10-30T12:11:13.048Z,12.80
2022-10-30T12:12:25.173Z,12.86
2022-10-30T12:13:31.208Z,12.90
2022-10-30T12:14:34.204Z,12.85
2022-10-30T12:15:36.868Z,12.90
2022-10-30T12:16:43.087Z,12.82
2022-10-30T12:17:54.783Z,12.86
2022-10-30T12:19:00.263Z,12.91
2022-10-30T12:20:04.885Z,12.73
2022-10-30T12:21:07.124Z,12.89
2022-10-30T12:22:09.955Z,12.96
2022-10-30T12:23:19.072Z,13.02
2022-10-30T12:24:33.762Z,12.89
2022-10-30T12:25:36.650Z,12.70
2022-10-30T12:26:40.833Z,12.70
2022-10-30T12:27:43.481Z,12.70
2022-10-30T12:28:54.651Z,12.81
2022-10-30T12:30:10.660Z,12.95
2022-10-30T12:31:16.238Z,12.62
2022-10-30T12:32:22.141Z,12.65
2022-10-30T12:33:30.999Z,12.61
2022-10-30T12:36:01.680Z,12.76
2022-10-30T12:37:16.465Z,12.66
2022-10-30T12:38:31.070Z,12.57
2022-10-30T12:39:45.348Z,12.54
2022-10-30T12:41:09.613Z,12.57
2022-10-30T12:42:15.310Z,12.50
2022-10-30T12:43:20.945Z,12.54
2022-10-30T12:44:35.095Z,12.56
2022-10-30T12:45:40.702Z,12.46
2022-10-30T12:46:53.272Z,12.44
2022-10-30T12:48:17.593Z,12.34
2022-10-30T12:49:40.822Z,12.34
2022-10-30T12:51:19.737Z,12.65
2022-10-30T12:52:27.909Z,12.49
2022-10-30T12:53:48.567Z,12.69
2022-10-30T12:55:17.346Z,12.67
2022-10-30T12:56:23.572Z,12.74
2022-10-30T12:57:28.316Z,12.58
2022-10-30T12:58:40.016Z,12.52
2022-10-30T12:59:50.835Z,12.45
2022-10-30T13:01:08.145Z,12.29
2022-10-30T13:02:16.932Z,12.36
2022-10-30T13:03:31.924Z,12.34
2022-10-30T13:04:37.398Z,12.25
2022-10-30T13:05:44.091Z,12.24
2022-10-30T13:06:56.674Z,12.29
2022-10-30T13:08:17.755Z,12.34
2022-10-30T13:09:41.650Z,12.41
2022-10-30T13:10:53.923Z,12.63
2022-10-30T13:11:59.549Z,12.49
2022-10-30T13:13:05.073Z,12.44
2022-10-30T13:14:11.145Z,12.63
2022-10-30T13:15:19.757Z,12.60
2022-10-30T13:16:25.546Z,12.59
2022-10-30T13:17:29.177Z,12.69
2022-10-30T13:18:32.262Z,12.59
2022-10-30T13:19:35.137Z,12.50
2022-10-30T13:20:40.774Z,12.39
2022-10-30T13:22:01.684Z,12.35
2022-10-30T13:23:07.368Z,12.37
2022-10-30T13:24:26.373Z,12.43
2022-10-30T13:25:37.909Z,12.48
2022-10-30T13:26:56.364Z,12.45
2022-10-30T13:28:03.054Z,12.44
2022-10-30T13:29:30.282Z,12.46
2022-10-30T13:30:39.626Z,12.48
2022-10-30T13:32:00.410Z,12.53
2022-10-30T13:33:11.754Z,12.39
2022-10-30T13:34:26.184Z,12.26
2022-10-30T13:35:35.340Z,12.25
2022-10-30T13:36:47.966Z,12.29
2022-10-30T13:38:29.338Z,12.32
2022-10-30T13:39:38.061Z,12.37
2022-10-30T13:40:52.663Z,12.50
2022-10-30T13:42:04.644Z,12.46
2022-10-30T13:43:31.543Z,12.51
2022-10-30T13:44:52.219Z,12.48
2022-10-30T13:46:20.748Z,12.39
2022-10-30T13:47:38.638Z,12.27
2022-10-30T13:48:44.154Z,12.32
2022-10-30T13:50:15.880Z,12.22
2022-10-30T13:51:42.317Z,12.13
2022-10-30T13:52:47.978Z,12.09
2022-10-30T13:54:02.338Z,12.06
2022-10-30T13:55:17.128Z,12.02
2022-10-30T13:56:20.748Z,12.04
2022-10-30T13:57:42.758Z,12.02
2022-10-30T13:58:49.209Z,12.11
2022-10-30T13:59:54.703Z,12.19
2022-10-30T14:01:03.882Z,12.20
2022-10-30T14:02:30.801Z,12.19
2022-10-30T14:03:57.708Z,12.08
2022-10-30T14:05:16.555Z,11.95
2022-10-30T14:06:37.252Z,11.95
2022-10-30T14:07:49.701Z,12.02
2022-10-30T14:08:57.340Z,12.05
2022-10-30T14:10:12.984Z,12.08
2022-10-30T14:11:15.372Z,12.08
2022-10-30T14:12:56.377Z,12.06
2022-10-30T14:14:24.172Z,12.08
2022-10-30T14:15:35.915Z,12.51
2022-10-30T14:16:43.637Z,12.19
2022-10-30T14:18:17.386Z,12.19
2022-10-30T14:19:19.342Z,12.13
2022-10-30T14:20:23.879Z,11.90
2022-10-30T14:21:43.417Z,12.07
2022-10-30T14:22:49.396Z,11.98
2022-10-30T14:23:56.039Z,11.93
2022-10-30T14:24:59.168Z,11.84
2022-10-30T14:26:08.354Z,11.84
2022-10-30T14:27:13.865Z,11.83
2022-10-30T14:28:21.884Z,11.79
2022-10-30T14:29:36.318Z,11.80
2022-10-30T14:30:42.016Z,11.78
2022-10-30T14:31:45.184Z,11.81
2022-10-30T14:32:51.012Z,11.78
2022-10-30T14:33:56.935Z,11.77
2022-10-30T14:34:59.252Z,11.77
2022-10-30T14:36:35.028Z,11.77
2022-10-30T14:37:40.898Z,11.80
2022-10-30T14:38:52.873Z,11.78
2022-10-30T14:39:57.262Z,11.79
2022-10-30T14:41:03.022Z,11.75
2022-10-30T14:42:11.912Z,11.74
2022-10-30T14:43:26.904Z,11.75
2022-10-30T14:44:47.780Z,11.73